Time;durP1;ratioP1;P1;durP2;ratioP2;P2;SDS_P1;SDS_P2;PMS_P1;PMS_P2;Temp;Humidity;BMP_temperature;BMP_pressure;BME280_temperature;BME280_humidity;BME280_pressure;Samples;Min_cycle;Max_cycle;Signal;HPM_P1;HPM_P2
2021/09/13 10:11:01;;;;;;;8.45;7.25;;;18.70;99.90;;;;;;2631545;46;20224;-77
2021/09/13 10:13:30;;;;;;;9.50;7.55;;;20.30;99.90;;;;;;2634728;39;20830;-80
2021/09/13 10:15:59;;;;;;;11.57;8.40;;;20.00;99.90;;;;;;2631417;47;20130;-80
2021/09/13 10:18:28;;;;;;;12.13;7.80;;;19.80;99.90;;;;;;2631410;47;20146;-79
2021/09/13 10:20:57;;;;;;;14.90;8.15;;;19.80;99.90;;;;;;2631150;54;20176;-80
2021/09/13 10:23:26;;;;;;;10.13;7.43;;;19.90;99.90;;;;;;2630635;47;20217;-79
2021/09/13 10:25:55;;;;;;;10.68;7.95;;;20.00;99.90;;;;;;2637343;39;20797;-81
2021/09/13 10:28:26;;;;;;;9.20;7.80;;;20.30;99.90;;;;;;2631234;47;20130;-79
2021/09/13 10:30:56;;;;;;;15.55;8.30;;;20.50;99.90;;;;;;2630411;46;20175;-80
2021/09/13 10:33:25;;;;;;;11.02;6.25;;;20.60;99.90;;;;;;2630745;46;20157;-81
2021/09/13 10:36:05;;;;;;;11.10;8.18;;;20.40;99.90;;;;;;2634863;39;20753;-79
2021/09/13 10:38:45;;;;;;;12.55;8.75;;;20.60;99.90;;;;;;2631208;47;20137;-77
2021/09/13 10:41:34;;;;;;;9.95;8.95;;;20.60;99.90;;;;;;2631266;54;20152;-80
2021/09/13 10:44:09;;;;;;;9.73;8.18;;;20.50;99.90;;;;;;2630929;47;20133;-79
2021/09/13 10:47:03;;;;;;;10.52;8.13;;;20.40;99.90;;;;;;2630865;54;20145;-80
2021/09/13 10:49:33;;;;;;;10.85;8.60;;;20.30;99.90;;;;;;2635319;39;20809;-80
2021/09/13 10:52:33;;;;;;;13.07;8.52;;;20.30;99.90;;;;;;2631210;54;20140;-79
2021/09/13 10:55:21;;;;;;;10.85;8.82;;;20.70;99.90;;;;;;2630950;54;20150;-81
2021/09/13 10:58:01;;;;;;;12.40;8.15;;;20.90;99.90;;;;;;2631100;54;20133;-80
2021/09/13 11:00:58;;;;;;;14.07;7.00;;;20.80;99.90;;;;;;2630882;54;20169;-81
2021/09/13 11:03:53;;;;;;;11.82;8.27;;;20.90;99.90;;;;;;2631114;54;20177;-82
2021/09/13 11:06:31;;;;;;;11.40;7.93;;;20.90;99.90;;;;;;2630978;54;20888;-80
2021/09/13 11:09:02;;;;;;;8.48;7.68;;;20.90;99.90;;;;;;2630895;54;20173;-79
2021/09/13 11:11:33;;;;;;;9.23;7.68;;;21.00;99.90;;;;;;2630733;47;20194;-82
2021/09/13 11:14:03;;;;;;;13.73;7.80;;;20.90;99.90;;;;;;2630973;54;20134;-80
2021/09/13 11:16:37;;;;;;;10.30;8.02;;;20.80;99.90;;;;;;2630774;54;20206;-80
2021/09/13 11:19:11;;;;;;;8.90;7.85;;;21.10;99.90;;;;;;2631063;46;20245;-81
2021/09/13 11:21:42;;;;;;;10.20;5.93;;;21.20;99.90;;;;;;2629863;54;20176;-79
2021/09/13 11:24:16;;;;;;;9.80;8.20;;;20.80;99.90;;;;;;2630334;46;20169;-80
2021/09/13 11:26:47;;;;;;;6.95;6.35;;;20.70;99.90;;;;;;2630853;54;20164;-78
2021/09/13 11:29:17;;;;;;;9.50;6.97;;;20.50;99.90;;;;;;2631016;47;20164;-80
2021/09/13 11:31:52;;;;;;;8.05;6.53;;;19.90;99.90;;;;;;2631091;47;20126;-79
2021/09/13 11:34:27;;;;;;;10.48;7.10;;;19.80;99.90;;;;;;2629745;54;20149;-77
2021/09/13 11:37:02;;;;;;;10.60;6.47;;;20.10;99.90;;;;;;2630785;54;20149;-79
2021/09/13 11:39:33;;;;;;;7.72;6.00;;;20.40;99.90;;;;;;2630134;54;20157;-78
2021/09/13 11:42:06;;;;;;;10.60;6.05;;;20.40;99.90;;;;;;2631993;39;20732;-77
2021/09/13 11:44:42;;;;;;;8.40;6.93;;;20.40;99.90;;;;;;2630218;54;20821;-80
2021/09/13 11:47:14;;;;;;;6.88;4.68;;;20.60;99.90;;;;;;2630817;47;20129;-79
2021/09/13 11:49:47;;;;;;;6.55;5.30;;;20.60;99.90;;;;;;2630349;54;20161;-81
2021/09/13 11:52:22;;;;;;;6.65;4.28;;;20.80;99.90;;;;;;2630989;54;20213;-81
2021/09/13 11:54:55;;;;;;;7.35;4.43;;;20.70;99.90;;;;;;2630875;46;20164;-82
2021/09/13 11:57:31;;;;;;;7.30;4.97;;;20.80;99.90;;;;;;2631069;54;20129;-82
2021/09/13 12:00:02;;;;;;;4.82;4.32;;;21.10;99.90;;;;;;2630635;54;20982;-82
2021/09/13 12:02:48;;;;;;;11.98;6.68;;;20.90;99.90;;;;;;2631130;46;20153;-82
2021/09/13 12:05:19;;;;;;;6.60;4.80;;;20.70;99.90;;;;;;2630539;54;20137;-81
2021/09/13 12:07:50;;;;;;;4.53;4.03;;;20.80;99.90;;;;;;2630667;54;20134;-81
2021/09/13 12:10:22;;;;;;;4.93;3.72;;;21.50;99.90;;;;;;2630566;54;20161;-81
2021/09/13 12:12:53;;;;;;;7.18;4.57;;;22.10;99.90;;;;;;2630888;47;20206;-82
2021/09/13 12:15:25;;;;;;;5.13;4.63;;;22.30;99.90;;;;;;2630764;54;20133;-81
2021/09/13 12:17:57;;;;;;;4.55;3.65;;;22.30;99.90;;;;;;2630957;47;20130;-81
2021/09/13 12:20:28;;;;;;;9.18;4.35;;;22.20;99.90;;;;;;2630668;47;20832;-82
2021/09/13 12:23:06;;;;;;;6.72;5.22;;;22.40;99.90;;;;;;2630956;47;20181;-80
2021/09/13 12:25:43;;;;;;;6.07;5.47;;;22.30;99.90;;;;;;2630676;54;20129;-82
2021/09/13 12:28:12;;;;;;;9.68;6.32;;;22.30;99.90;;;;;;2644462;31;20790;-79
2021/09/13 12:30:44;;;;;;;4.70;4.25;;;22.00;99.90;;;;;;2630941;54;20153;-81
2021/09/13 12:33:15;;;;;;;7.10;4.35;;;21.60;99.90;;;;;;2630628;47;20141;-78
2021/09/13 12:35:46;;;;;;;5.72;5.22;;;21.90;99.90;;;;;;2631034;54;20129;-80
2021/09/13 12:38:27;;;;;;;6.45;4.45;;;22.10;99.90;;;;;;2630727;46;20201;-82
2021/09/13 12:41:02;;;;;;;5.43;4.10;;;22.20;99.90;;;;;;2630819;54;20180;-80
2021/09/13 12:43:38;;;;;;;5.10;4.47;;;22.00;99.90;;;;;;2630700;54;20156;-81
2021/09/13 12:46:18;;;;;;;7.13;4.68;;;22.00;99.90;;;;;;2630978;54;20129;-80
2021/09/13 12:48:54;;;;;;;7.65;4.88;;;22.10;99.90;;;;;;2630557;54;20185;-81
2021/09/13 12:51:26;;;;;;;5.15;4.45;;;22.20;99.90;;;;;;2630743;54;20142;-81
2021/09/13 12:53:59;;;;;;;6.93;4.50;;;22.20;99.90;;;;;;2630207;54;20168;-81
2021/09/13 12:56:35;;;;;;;6.60;4.90;;;22.00;99.90;;;;;;2629589;54;20160;-81
2021/09/13 12:59:11;;;;;;;4.90;4.35;;;22.60;99.90;;;;;;2630189;54;20160;-79
2021/09/13 13:01:42;;;;;;;6.20;4.88;;;22.70;99.90;;;;;;2630532;54;20159;-78
2021/09/13 13:04:15;;;;;;;5.22;4.60;;;23.00;99.90;;;;;;2630156;47;20142;-80
2021/09/13 13:06:47;;;;;;;4.28;3.85;;;23.40;99.90;;;;;;2630538;54;20156;-81
2021/09/13 13:09:20;;;;;;;4.65;4.07;;;23.60;99.90;;;;;;2630428;54;20188;-81
2021/09/13 13:11:49;;;;;;;5.70;4.20;;;23.50;99.90;;;;;;2630344;54;20160;-81
2021/09/13 13:14:17;;;;;;;3.50;3.15;;;23.10;99.90;;;;;;2629620;47;20157;-80
2021/09/13 13:16:48;;;;;;;3.35;3.08;;;23.40;99.90;;;;;;2630621;47;20174;-81
2021/09/13 13:19:20;;;;;;;5.00;3.13;;;23.50;99.90;;;;;;2630880;47;20180;-78
2021/09/13 13:21:51;;;;;;;3.25;2.85;;;23.70;99.90;;;;;;2630869;54;20130;-77
2021/09/13 13:24:21;;;;;;;4.20;3.80;;;23.20;99.90;;;;;;2630530;47;20153;-82
2021/09/13 13:26:53;;;;;;;4.50;2.67;;;23.40;99.90;;;;;;2631032;47;20152;-80
2021/09/13 13:29:22;;;;;;;2.75;2.55;;;23.00;99.90;;;;;;2630544;47;20176;-79
2021/09/13 13:31:51;;;;;;;3.88;2.92;;;23.00;99.90;;;;;;2630531;47;20189;-80
2021/09/13 13:34:23;;;;;;;4.53;3.15;;;22.70;99.90;;;;;;2630348;47;20145;-81
2021/09/13 13:36:52;;;;;;;2.60;2.40;;;22.60;99.90;;;;;;2630721;54;20173;-81
2021/09/13 13:39:21;;;;;;;3.58;3.20;;;22.60;99.90;;;;;;2630389;47;20216;-81
2021/09/13 13:41:50;;;;;;;3.08;2.85;;;22.70;99.90;;;;;;2630306;54;20265;-81
2021/09/13 13:44:19;;;;;;;4.20;2.42;;;22.70;99.90;;;;;;2630303;47;20225;-80
2021/09/13 13:46:47;;;;;;;2.50;2.30;;;22.70;99.90;;;;;;2630659;46;20168;-82
2021/09/13 13:49:16;;;;;;;2.92;2.20;;;22.50;99.90;;;;;;2630523;47;20177;-81
2021/09/13 13:51:47;;;;;;;4.03;3.03;;;22.40;99.90;;;;;;2630743;47;20137;-81
2021/09/13 13:54:16;;;;;;;3.97;3.58;;;22.60;99.90;;;;;;2630031;47;20134;-80
2021/09/13 13:56:46;;;;;;;3.83;3.53;;;22.60;99.90;;;;;;2630631;54;20145;-81
2021/09/13 13:59:14;;;;;;;3.17;2.53;;;22.60;99.90;;;;;;2630330;47;20181;-81
2021/09/13 14:01:43;;;;;;;2.75;2.55;;;22.60;99.90;;;;;;2631441;31;20782;-81
2021/09/13 14:04:12;;;;;;;4.90;3.70;;;22.50;99.90;;;;;;2630501;54;20150;-82
2021/09/13 14:06:41;;;;;;;2.75;2.42;;;22.40;99.90;;;;;;2631579;46;20193;-81
2021/09/13 14:09:12;;;;;;;3.45;2.45;;;22.20;99.90;;;;;;2631269;54;20801;-82
2021/09/13 14:11:41;;;;;;;3.65;3.00;;;22.10;99.90;;;;;;2631476;54;20153;-82
2021/09/13 14:14:10;;;;;;;7.00;3.88;;;22.50;99.90;;;;;;2631275;47;20911;-81
2021/09/13 14:16:39;;;;;;;2.65;2.45;;;22.40;99.90;;;;;;2630958;47;20136;-81
2021/09/13 14:19:08;;;;;;;3.03;2.72;;;22.10;99.90;;;;;;2631357;54;20210;-80
2021/09/13 14:21:37;;;;;;;2.40;2.25;;;22.10;99.90;;;;;;2631228;47;20201;-81
2021/09/13 14:24:06;;;;;;;4.18;2.55;;;22.00;99.90;;;;;;2630854;54;20149;-82
2021/09/13 14:26:38;;;;;;;5.15;3.30;;;21.80;99.90;;;;;;2631407;47;20205;-82
2021/09/13 14:29:06;;;;;;;4.78;3.20;;;21.80;99.90;;;;;;2631109;47;20900;-81
2021/09/13 14:31:36;;;;;;;3.95;2.88;;;21.80;99.90;;;;;;2631310;54;20141;-79
2021/09/13 14:34:05;;;;;;;4.20;2.70;;;21.70;99.90;;;;;;2630614;47;20130;-80
2021/09/13 14:36:34;;;;;;;3.88;2.53;;;21.80;99.90;;;;;;2631184;47;20137;-81
2021/09/13 14:39:03;;;;;;;2.60;2.40;;;22.20;99.90;;;;;;2631340;46;20189;-81
2021/09/13 14:41:33;;;;;;;2.70;2.35;;;22.60;99.90;;;;;;2630609;54;20142;-79
2021/09/13 14:44:05;;;;;;;2.70;1.80;;;22.80;99.90;;;;;;2630450;54;20136;-80
2021/09/13 14:46:34;;;;;;;3.03;2.72;;;22.70;99.90;;;;;;2631164;54;20138;-79
2021/09/13 14:49:03;;;;;;;4.22;2.15;;;22.80;99.90;;;;;;2631176;47;20188;-79
2021/09/13 14:51:32;;;;;;;2.80;1.95;;;23.10;99.90;;;;;;2631268;47;20698;-79
2021/09/13 14:54:03;;;;;;;2.00;1.77;;;23.00;99.90;;;;;;2630704;54;20849;-80
2021/09/13 14:56:32;;;;;;;3.50;2.35;;;22.80;99.90;;;;;;2631363;54;20213;-80
2021/09/13 14:59:04;;;;;;;3.35;2.03;;;22.70;99.90;;;;;;2631067;54;20145;-80
2021/09/13 15:01:33;;;;;;;2.63;2.10;;;23.00;99.90;;;;;;2630878;47;20157;-79
2021/09/13 15:04:02;;;;;;;3.53;2.05;;;23.70;99.90;;;;;;2630391;47;20140;-80
2021/09/13 15:06:32;;;;;;;1.77;1.55;;;24.30;99.90;;;;;;2630457;54;20156;-78
2021/09/13 15:09:02;;;;;;;3.03;1.83;;;24.20;99.90;;;;;;2630709;54;20157;-77
2021/09/13 15:11:31;;;;;;;3.95;2.85;;;24.00;99.90;;;;;;2631617;39;20630;-79
2021/09/13 15:14:05;;;;;;;2.45;1.33;;;24.00;99.90;;;;;;2630614;46;20161;-79
2021/09/13 15:16:33;;;;;;;1.63;1.35;;;24.10;99.90;;;;;;2630432;47;20147;-79
2021/09/13 15:19:03;;;;;;;4.25;1.70;;;24.40;99.90;;;;;;2630705;54;20177;-80
2021/09/13 15:21:32;;;;;;;1.67;1.58;;;24.20;99.90;;;;;;2630696;46;20150;-78
2021/09/13 15:24:01;;;;;;;2.95;1.60;;;24.20;99.90;;;;;;2630237;47;20285;-78
2021/09/13 15:26:31;;;;;;;1.85;1.38;;;23.70;99.90;;;;;;2630614;54;20142;-78
2021/09/13 15:29:00;;;;;;;2.88;1.92;;;23.00;99.90;;;;;;2630425;47;20184;-78
2021/09/13 15:31:31;;;;;;;5.28;1.58;;;22.50;99.90;;;;;;2630411;54;20126;-78
2021/09/13 15:34:00;;;;;;;2.20;1.70;;;22.20;99.90;;;;;;2630357;47;20155;-79
2021/09/13 15:36:29;;;;;;;3.88;1.88;;;22.40;99.90;;;;;;2631039;47;20160;-79
2021/09/13 15:38:58;;;;;;;2.10;1.65;;;22.30;99.90;;;;;;2635455;39;20715;-79
2021/09/13 15:41:27;;;;;;;1.33;1.23;;;22.20;99.90;;;;;;2630231;47;20377;-78
2021/09/13 15:43:56;;;;;;;2.03;1.48;;;22.00;99.90;;;;;;2630478;54;20173;-77
2021/09/13 15:46:26;;;;;;;2.10;1.58;;;22.10;99.90;;;;;;2630794;47;20130;-79
2021/09/13 15:48:57;;;;;;;2.78;1.52;;;21.90;99.90;;;;;;2630798;47;20245;-79
2021/09/13 15:51:32;;;;;;;3.33;1.52;;;21.60;99.90;;;;;;2631046;54;20145;-81
2021/09/13 15:54:07;;;;;;;2.20;2.00;;;21.70;99.90;;;;;;2630462;47;20139;-80
2021/09/13 15:56:36;;;;;;;2.15;1.50;;;21.60;99.90;;;;;;2630601;47;20129;-81
2021/09/13 15:59:05;;;;;;;6.50;1.98;;;21.70;99.90;;;;;;2630809;47;20169;-80
2021/09/13 16:01:34;;;;;;;2.28;1.60;;;22.00;99.90;;;;;;2630928;54;20181;-80
2021/09/13 16:04:06;;;;;;;4.55;1.90;;;21.70;99.90;;;;;;2630620;47;20145;-80
2021/09/13 16:06:35;;;;;;;2.95;1.50;;;21.70;99.90;;;;;;2630927;54;20156;-79
2021/09/13 16:09:05;;;;;;;5.03;1.83;;;21.50;99.90;;;;;;2627860;54;20161;31
2021/09/13 16:11:34;;;;;;;3.25;2.03;;;21.50;99.90;;;;;;2626796;54;20147;-77
2021/09/13 16:14:03;;;;;;;2.35;1.95;;;21.60;99.90;;;;;;2628876;47;20737;-81
2021/09/13 16:19:08;;;;;;;3.10;2.25;;;21.60;99.90;;;;;;2629987;54;20153;-76
2021/09/13 16:21:37;;;;;;;6.75;2.20;;;21.50;99.90;;;;;;2630221;46;20161;-81
2021/09/13 16:24:08;;;;;;;2.20;1.52;;;21.70;99.90;;;;;;2619460;54;21162;31
2021/09/13 16:26:39;;;;;;;3.03;1.85;;;21.50;99.90;;;;;;2601871;54;21053;31
2021/09/13 16:29:07;;;;;;;3.17;2.83;;;21.20;99.90;;;;;;2607891;54;20201;-80
2021/09/13 16:31:38;;;;;;;4.38;2.75;;;21.10;99.90;;;;;;2604333;54;20187;31
2021/09/13 16:34:07;;;;;;;6.82;3.33;;;21.00;99.90;;;;;;2603234;54;21518;31
2021/09/13 16:36:40;;;;;;;3.38;2.58;;;20.90;99.90;;;;;;2603872;47;21069;31
2021/09/13 16:39:09;;;;;;;4.97;3.03;;;20.70;99.90;;;;;;2621979;47;20223;-79
2021/09/13 16:41:38;;;;;;;3.55;2.53;;;20.80;99.90;;;;;;2631128;47;20141;-80
2021/09/13 16:44:07;;;;;;;7.15;3.28;;;20.70;99.90;;;;;;2626348;47;20216;-78
2021/09/13 16:46:36;;;;;;;3.50;3.20;;;20.60;99.90;;;;;;2629105;39;20604;-77
2021/09/13 16:49:05;;;;;;;5.68;5.00;;;20.50;99.90;;;;;;2628582;47;20125;-77
2021/09/13 16:51:34;;;;;;;7.38;3.83;;;20.50;99.90;;;;;;2629693;39;20665;-77
2021/09/13 16:54:06;;;;;;;6.32;2.97;;;20.40;99.90;;;;;;2628080;54;20129;-78
2021/09/13 16:56:34;;;;;;;2.40;2.20;;;20.40;99.90;;;;;;2627864;54;20168;-77
2021/09/13 16:59:03;;;;;;;2.45;2.25;;;20.30;99.90;;;;;;2627389;54;20152;-78
2021/09/13 17:01:32;;;;;;;3.28;2.78;;;20.20;99.90;;;;;;2628067;54;20169;-77
2021/09/13 17:04:01;;;;;;;30.63;26.02;;;20.20;99.90;;;;;;2626280;54;20919;-79
2021/09/13 17:06:30;;;;;;;5.45;4.95;;;20.20;99.90;;;;;;2629741;47;20160;-80
2021/09/13 17:08:59;;;;;;;3.70;2.72;;;20.20;99.90;;;;;;2629833;47;20695;-77
2021/09/13 17:11:30;;;;;;;2.70;2.50;;;20.10;99.90;;;;;;2633574;39;20755;-79
2021/09/13 17:13:59;;;;;;;3.90;2.80;;;20.00;99.90;;;;;;2629427;47;20176;-78
2021/09/13 17:16:30;;;;;;;2.83;2.42;;;19.90;99.90;;;;;;2630281;54;20129;-79
2021/09/13 17:18:59;;;;;;;2.95;2.53;;;19.90;99.90;;;;;;2627454;47;20161;-78
2021/09/13 17:21:28;;;;;;;32.22;28.70;;;19.80;99.90;;;;;;2629374;54;20150;-80
2021/09/13 17:23:57;;;;;;;11.43;9.43;;;19.80;99.90;;;;;;2628718;47;20177;-77
2021/09/13 17:26:27;;;;;;;4.38;3.97;;;19.60;99.90;;;;;;2627339;54;20181;-78
2021/09/13 17:28:58;;;;;;;4.50;3.65;;;19.50;99.90;;;;;;2624978;47;20156;-76
2021/09/13 17:31:27;;;;;;;3.22;2.67;;;19.40;99.90;;;;;;2623939;54;20141;-78
2021/09/13 17:33:57;;;;;;;3.40;2.92;;;19.30;99.90;;;;;;2625082;47;20729;-77
2021/09/13 17:36:26;;;;;;;4.75;3.00;;;19.10;99.90;;;;;;2626035;47;20686;-76
2021/09/13 17:38:55;;;;;;;5.05;3.58;;;19.10;99.90;;;;;;2628443;54;20185;-77
2021/09/13 17:41:23;;;;;;;4.72;3.63;;;19.10;99.90;;;;;;2625778;54;20141;-76
2021/09/13 17:43:54;;;;;;;12.00;9.02;;;19.00;99.90;;;;;;2625771;54;20670;-76
2021/09/13 17:46:25;;;;;;;24.30;20.15;;;18.90;99.90;;;;;;2626445;39;20605;-77
2021/09/13 17:48:54;;;;;;;38.30;33.47;;;18.80;99.90;;;;;;2624761;39;20693;-76
2021/09/13 17:51:23;;;;;;;7.70;5.38;;;18.70;99.90;;;;;;2625271;54;20149;-77
2021/09/13 17:53:52;;;;;;;4.22;3.08;;;18.70;99.90;;;;;;2625350;54;20176;-77
2021/09/13 17:56:23;;;;;;;5.10;4.15;;;18.60;99.90;;;;;;2625780;47;20160;-76
2021/09/13 17:58:54;;;;;;;2.47;2.28;;;18.60;99.90;;;;;;2626682;54;20675;-78
2021/09/13 18:01:25;;;;;;;3.35;2.70;;;18.70;99.90;;;;;;2626696;39;20595;-77
2021/09/13 18:03:54;;;;;;;4.47;2.78;;;18.60;99.90;;;;;;2625850;47;20177;-78
2021/09/13 18:06:23;;;;;;;4.82;3.00;;;18.50;99.90;;;;;;2626436;47;20187;-77
2021/09/13 18:08:52;;;;;;;6.47;2.33;;;18.50;99.90;;;;;;2624493;54;20150;-78
2021/09/13 18:11:22;;;;;;;2.75;2.40;;;18.50;99.90;;;;;;2624639;54;20161;-77
2021/09/13 18:13:50;;;;;;;2.75;2.17;;;18.40;99.90;;;;;;2624944;54;20161;-77
2021/09/13 18:16:19;;;;;;;2.67;2.47;;;18.30;99.90;;;;;;2624612;54;20161;-77
2021/09/13 18:18:50;;;;;;;4.18;2.90;;;18.20;99.90;;;;;;2625176;54;20149;-77
2021/09/13 18:21:20;;;;;;;3.38;2.65;;;18.20;99.90;;;;;;2628794;54;20146;-79
2021/09/13 18:23:49;;;;;;;2.90;2.60;;;18.20;99.90;;;;;;2629235;47;20209;-78
2021/09/13 23:06:28;;;;;;;7.50;4.75;;;18.20;99.90;;;;;;2632526;46;20201;-77
2021/09/13 23:08:59;;;;;;;6.45;4.82;;;15.50;99.90;;;;;;2630986;47;20153;-77
2021/09/13 23:11:28;;;;;;;4.78;4.38;;;15.30;99.90;;;;;;2631221;47;20955;-77
2021/09/13 23:13:59;;;;;;;7.95;5.32;;;15.30;99.90;;;;;;2631063;54;20145;-77
2021/09/13 23:16:28;;;;;;;5.10;4.50;;;15.40;99.90;;;;;;2631193;46;20146;-79
2021/09/13 23:18:57;;;;;;;6.30;4.05;;;15.20;99.90;;;;;;2631225;47;20180;-78
2021/09/13 23:21:28;;;;;;;7.30;5.38;;;14.90;99.90;;;;;;2631052;47;20269;-78
2021/09/13 23:23:57;;;;;;;4.43;3.97;;;15.10;99.90;;;;;;2641040;39;20372;-78
2021/09/13 23:26:26;;;;;;;5.55;5.05;;;15.20;99.90;;;;;;2631047;51;20142;-76
2021/09/13 23:28:55;;;;;;;4.00;3.70;;;15.30;99.90;;;;;;2631069;47;20142;-78
2021/09/13 23:31:25;;;;;;;4.93;4.43;;;15.30;99.90;;;;;;2631161;54;20151;-77
2021/09/13 23:33:54;;;;;;;6.50;4.45;;;15.30;99.90;;;;;;2630898;47;20133;-78
2021/09/13 23:36:23;;;;;;;8.23;4.50;;;15.20;99.90;;;;;;2637579;39;20793;-77
2021/09/13 23:38:56;;;;;;;6.10;5.07;;;15.00;99.90;;;;;;2631138;46;20141;-77
2021/09/13 23:41:26;;;;;;;5.93;5.13;;;15.00;99.90;;;;;;2631110;47;20178;-78
2021/09/13 23:43:55;;;;;;;5.75;5.25;;;15.00;99.90;;;;;;2630643;47;20152;-77
2021/09/13 23:46:24;;;;;;;5.40;4.85;;;15.00;99.90;;;;;;2631111;54;20896;-77
2021/09/13 23:48:55;;;;;;;5.82;4.80;;;14.80;99.90;;;;;;2631025;46;20149;-77
2021/09/13 23:51:24;;;;;;;6.10;5.50;;;14.80;99.90;;;;;;2631076;54;20133;-77
2021/09/13 23:53:56;;;;;;;6.35;5.28;;;14.90;99.90;;;;;;2630909;47;20153;-78
2021/09/13 23:56:26;;;;;;;5.80;5.00;;;15.00;99.90;;;;;;2631053;51;20149;-76
2021/09/13 23:58:55;;;;;;;5.78;5.22;;;15.00;99.90;;;;;;2631025;47;20130;-77
